createdAt,value
2023-12-30T00:02:20.760Z,97931.34
2023-12-30T00:04:47.313Z,97920.84
2023-12-30T00:07:13.971Z,97930.50
2023-12-30T00:09:41.301Z,97917.38
2023-12-30T00:12:08.243Z,97910.34
2023-12-30T00:14:34.868Z,97920.00
2023-12-30T00:17:01.461Z,97914.75
2023-12-30T00:19:28.493Z,97916.47
2023-12-30T00:21:55.129Z,97916.50
2023-12-30T00:24:21.727Z,97929.63
2023-12-30T00:26:48.341Z,97918.25
2023-12-30T00:29:14.875Z,97924.38
2023-12-30T00:31:41.411Z,97917.38
2023-12-30T00:34:08.147Z,97921.78
2023-12-30T00:36:34.712Z,97918.28
2023-12-30T00:39:01.206Z,97889.34
2023-12-30T00:41:28.214Z,97929.66
2023-12-30T00:43:54.913Z,97905.13
2023-12-30T00:46:22.800Z,97904.25
2023-12-30T00:48:56.865Z,97892.00
2023-12-30T00:51:24.760Z,97909.50
2023-12-30T00:53:51.692Z,97937.50
2023-12-30T00:56:18.499Z,97962.91
2023-12-30T00:58:45.155Z,97988.31
2023-12-30T01:01:11.937Z,97983.97
2023-12-30T01:03:40.544Z,97972.56
2023-12-30T01:06:07.790Z,97965.53
2023-12-30T01:08:34.404Z,97938.41
2023-12-30T01:11:01.105Z,97959.41
2023-12-30T01:13:27.693Z,97962.91
2023-12-30T01:15:54.394Z,97948.91
2023-12-30T01:18:21.351Z,97952.38
2023-12-30T01:20:47.923Z,97963.75
2023-12-30T01:23:15.249Z,97969.88
2023-12-30T01:25:43.330Z,97962.88
2023-12-30T01:28:10.229Z,97958.50
2023-12-30T01:30:39.906Z,97964.66
2023-12-30T01:33:07.192Z,97967.28
2023-12-30T01:35:34.159Z,97964.66
2023-12-30T01:38:03.247Z,97969.91
2023-12-30T01:40:31.731Z,97989.19
2023-12-30T01:42:58.456Z,98016.31
2023-12-30T01:45:25.160Z,98023.31
2023-12-30T01:47:52.616Z,98025.06
2023-12-30T01:50:19.828Z,98019.78
2023-12-30T01:52:48.293Z,98035.56
2023-12-30T01:55:15.999Z,98032.91
2023-12-30T01:57:45.224Z,98053.84
2023-12-30T02:00:18.847Z,98031.09
2023-12-30T02:02:45.841Z,98006.59
2023-12-30T02:05:14.129Z,98023.13
2023-12-30T02:07:41.451Z,98028.38
2023-12-30T02:10:09.494Z,98036.25
2023-12-30T02:12:36.165Z,98044.13
2023-12-30T02:15:17.607Z,98046.84
2023-12-30T02:17:44.949Z,98023.19
2023-12-30T02:20:12.067Z,98020.50
2023-12-30T02:22:48.822Z,98024.88
2023-12-30T02:25:16.125Z,98029.25
2023-12-30T02:27:43.950Z,98044.13
2023-12-30T02:30:11.987Z,98038.00
2023-12-30T02:32:38.657Z,98043.31
2023-12-30T02:35:05.785Z,98066.97
2023-12-30T02:37:32.540Z,98066.09
2023-12-30T02:39:59.383Z,98088.81
2023-12-30T02:42:26.054Z,98060.84
2023-12-30T02:44:52.874Z,98046.84
2023-12-30T02:47:19.374Z,98064.25
2023-12-30T02:49:46.920Z,98048.50
2023-12-30T02:52:13.685Z,98022.22
2023-12-30T02:54:40.326Z,98029.25
2023-12-30T02:57:07.241Z,98035.38
2023-12-30T02:59:34.153Z,98034.50
2023-12-30T03:02:00.798Z,98034.50
2023-12-30T03:04:27.381Z,98039.75
2023-12-30T03:06:53.983Z,98037.09
2023-12-30T03:09:20.511Z,98036.22
2023-12-30T03:11:47.064Z,98044.03
2023-12-30T03:14:13.560Z,98041.41
2023-12-30T03:16:40.092Z,98051.97
2023-12-30T03:19:06.767Z,98058.09
2023-12-30T03:21:33.346Z,98051.97
2023-12-30T03:23:59.907Z,98043.22
2023-12-30T03:26:26.446Z,98044.09
2023-12-30T03:28:53.241Z,98048.44
2023-12-30T03:31:24.616Z,98058.09
2023-12-30T03:33:51.575Z,98069.44
2023-12-30T03:36:18.345Z,98072.09
2023-12-30T03:38:44.835Z,98069.50
2023-12-30T03:41:12.307Z,98082.63
2023-12-30T03:43:38.804Z,98078.25
2023-12-30T03:46:05.411Z,98064.25
2023-12-30T03:48:32.617Z,98069.50
2023-12-30T03:50:59.442Z,98071.25
2023-12-30T03:53:26.008Z,98084.38
2023-12-30T03:55:52.597Z,98083.50
2023-12-30T03:58:19.096Z,98086.97
2023-12-30T04:00:45.912Z,98085.22
2023-12-30T04:03:12.552Z,98093.94
2023-12-30T04:05:39.194Z,98092.19
2023-12-30T04:08:06.008Z,98094.81
2023-12-30T04:10:32.672Z,98099.19
2023-12-30T04:12:59.443Z,98107.88
2023-12-30T04:15:26.050Z,98113.19
2023-12-30T04:17:53.208Z,98116.69
2023-12-30T04:20:19.754Z,98119.38
2023-12-30T04:22:46.434Z,98125.47
2023-12-30T04:25:13.313Z,98117.63
2023-12-30T04:27:39.898Z,98120.25
2023-12-30T04:30:07.080Z,98119.38
2023-12-30T04:32:33.705Z,98124.63
2023-12-30T04:35:00.430Z,98105.38
2023-12-30T04:37:27.045Z,98108.00
2023-12-30T04:39:53.659Z,98115.91
2023-12-30T04:42:20.485Z,98115.00
2023-12-30T04:44:47.006Z,98125.53
2023-12-30T04:47:13.979Z,98121.16
2023-12-30T04:49:40.622Z,98117.66
2023-12-30T04:52:07.299Z,98128.19
2023-12-30T04:54:34.244Z,98132.56
2023-12-30T04:57:00.738Z,98122.97
2023-12-30T04:59:27.927Z,98122.06
2023-12-30T05:01:55.402Z,98132.59
2023-12-30T05:04:23.122Z,98106.38
2023-12-30T05:06:49.774Z,98130.00
2023-12-30T05:09:16.550Z,98116.88
2023-12-30T05:11:46.305Z,98131.75
2023-12-30T05:14:13.488Z,98128.22
2023-12-30T05:16:46.810Z,98130.81
2023-12-30T05:19:14.148Z,98123.84
2023-12-30T05:21:42.780Z,98130.81
2023-12-30T05:24:10.077Z,98129.88
2023-12-30T05:26:36.891Z,98132.59
2023-12-30T05:29:03.541Z,98129.97
2023-12-30T05:31:30.137Z,98130.81
2023-12-30T05:33:56.793Z,98118.59
2023-12-30T05:36:23.435Z,98114.25
2023-12-30T05:38:50.071Z,98113.41
2023-12-30T05:41:16.639Z,98123.03
2023-12-30T05:43:43.199Z,98132.69
2023-12-30T05:46:16.942Z,98126.53
2023-12-30T05:48:44.415Z,98135.31
2023-12-30T05:51:11.678Z,98138.81
2023-12-30T05:53:39.493Z,98128.31
2023-12-30T05:56:06.204Z,98143.19
2023-12-30T05:58:33.084Z,98140.50
2023-12-30T06:00:59.804Z,98143.19
2023-12-30T06:03:26.462Z,98145.81
2023-12-30T06:05:53.072Z,98160.69
2023-12-30T06:08:19.706Z,98153.69
2023-12-30T06:10:50.736Z,98161.63
2023-12-30T06:13:17.354Z,98162.50
2023-12-30T06:15:49.139Z,98159.88
2023-12-30T06:18:15.771Z,98180.00
2023-12-30T06:20:45.787Z,98182.63
2023-12-30T06:23:12.511Z,98193.09
2023-12-30T06:25:39.360Z,98194.84
2023-12-30T06:28:06.404Z,98193.97
2023-12-30T06:30:33.035Z,98200.09
2023-12-30T06:33:00.756Z,98201.84
2023-12-30T06:35:27.514Z,98206.22
2023-12-30T06:37:54.103Z,98204.47
2023-12-30T06:40:20.653Z,98215.00
2023-12-30T06:42:48.582Z,98213.22
2023-12-30T06:45:15.242Z,98222.91
2023-12-30T06:47:43.535Z,98217.69
2023-12-30T06:50:12.788Z,98224.72
2023-12-30T06:52:39.410Z,98217.69
2023-12-30T06:55:17.990Z,98236.06
2023-12-30T06:57:47.840Z,98220.28
2023-12-30T07:00:14.618Z,98229.91
2023-12-30T07:02:42.849Z,98226.41
2023-12-30T07:05:10.040Z,98244.81
2023-12-30T07:07:36.852Z,98251.81
2023-12-30T07:10:06.784Z,98274.63
2023-12-30T07:12:33.473Z,98264.13
2023-12-30T07:15:00.173Z,98271.13
2023-12-30T07:17:27.116Z,98263.25
2023-12-30T07:19:53.724Z,98276.41
2023-12-30T07:22:21.146Z,98288.66
2023-12-30T07:24:50.784Z,98292.19
2023-12-30T07:27:17.428Z,98289.53
2023-12-30T07:29:43.918Z,98293.91
2023-12-30T07:32:10.507Z,98294.78
2023-12-30T07:34:37.486Z,98302.69
2023-12-30T07:37:05.812Z,98309.69
2023-12-30T07:39:34.062Z,98303.56
2023-12-30T07:42:01.119Z,98302.72
2023-12-30T07:44:29.570Z,98306.25
2023-12-30T07:46:56.112Z,98307.13
2023-12-30T07:49:22.766Z,98310.63
2023-12-30T07:51:49.646Z,98299.25
2023-12-30T07:54:16.756Z,98292.25
2023-12-30T07:56:43.331Z,98306.31
2023-12-30T07:59:12.035Z,98309.81
2023-12-30T08:01:44.254Z,98308.03
2023-12-30T08:04:11.101Z,98301.00
2023-12-30T08:06:40.450Z,98307.13
2023-12-30T08:09:07.182Z,98309.78
2023-12-30T08:11:49.579Z,98310.63
2023-12-30T08:14:21.443Z,98320.28
2023-12-30T08:16:48.271Z,98319.41
2023-12-30T08:19:14.871Z,98316.78
2023-12-30T08:21:41.631Z,98329.09
2023-12-30T08:24:08.339Z,98337.88
2023-12-30T08:26:34.908Z,98335.25
2023-12-30T08:29:01.498Z,98335.25
2023-12-30T08:31:28.093Z,98334.34
2023-12-30T08:33:54.651Z,98325.59
2023-12-30T08:36:22.215Z,98328.22
2023-12-30T08:38:49.300Z,98334.34
2023-12-30T08:41:16.007Z,98337.00
2023-12-30T08:43:43.876Z,98332.63
2023-12-30T08:46:11.387Z,98337.00
2023-12-30T08:48:38.515Z,98344.94
2023-12-30T08:51:05.323Z,98346.69
2023-12-30T08:53:31.849Z,98351.09
2023-12-30T08:55:58.400Z,98355.47
2023-12-30T08:58:27.655Z,98351.16
2023-12-30T09:00:54.440Z,98355.53
2023-12-30T09:03:21.072Z,98360.78
2023-12-30T09:05:47.825Z,98359.91
2023-12-30T09:08:14.593Z,98370.44
2023-12-30T09:10:41.269Z,98373.06
2023-12-30T09:13:08.145Z,98366.94
2023-12-30T09:15:35.297Z,98370.50
2023-12-30T09:18:02.184Z,98379.28
2023-12-30T09:20:29.035Z,98381.03
2023-12-30T09:22:55.664Z,98380.16
2023-12-30T09:25:22.200Z,98392.41
2023-12-30T09:27:50.372Z,98395.94
2023-12-30T09:30:17.958Z,98404.69
2023-12-30T09:32:44.630Z,98405.56
2023-12-30T09:35:11.760Z,98402.94
2023-12-30T09:37:38.474Z,98399.44
2023-12-30T09:40:06.149Z,98398.63
2023-12-30T09:42:32.963Z,98403.00
2023-12-30T09:45:01.294Z,98400.44
2023-12-30T09:47:29.670Z,98408.34
2023-12-30T09:49:56.987Z,98416.22
2023-12-30T09:52:23.818Z,98411.03
2023-12-30T09:54:50.357Z,98422.47
2023-12-30T09:57:17.113Z,98412.78
2023-12-30T09:59:45.284Z,98418.97
2023-12-30T10:02:13.235Z,98424.28
2023-12-30T10:04:39.985Z,98426.00
2023-12-30T10:07:08.447Z,98421.59
2023-12-30T10:09:35.831Z,98423.41
2023-12-30T10:12:03.288Z,98421.69
2023-12-30T10:14:29.950Z,98422.53
2023-12-30T10:16:56.504Z,98429.53
2023-12-30T10:19:23.091Z,98421.63
2023-12-30T10:21:50.193Z,98421.59
2023-12-30T10:24:17.449Z,98428.63
2023-12-30T10:26:44.174Z,98420.69
2023-12-30T10:29:12.232Z,98397.91
2023-12-30T10:31:39.129Z,98407.56
2023-12-30T10:34:07.149Z,98419.84
2023-12-30T10:36:43.351Z,98423.41
2023-12-30T10:39:11.283Z,98414.63
2023-12-30T10:41:37.787Z,98425.16
2023-12-30T10:44:04.522Z,98413.75
2023-12-30T10:46:31.389Z,98405.88
2023-12-30T10:49:05.369Z,98405.91
2023-12-30T10:51:35.689Z,98396.25
2023-12-30T10:54:09.016Z,98388.34
2023-12-30T10:56:41.363Z,98390.09
2023-12-30T10:59:08.889Z,98399.75
2023-12-30T11:01:37.546Z,98383.09
2023-12-30T11:04:12.531Z,98390.09
2023-12-30T11:06:44.501Z,98389.22
2023-12-30T11:09:12.384Z,98383.09
2023-12-30T11:11:55.221Z,98383.97
2023-12-30T11:14:22.196Z,98382.22
2023-12-30T11:16:52.837Z,98377.84
2023-12-30T11:19:46.420Z,98378.72
2023-12-30T11:22:13.017Z,98384.88
2023-12-30T11:24:43.381Z,98385.75
2023-12-30T11:27:11.056Z,98384.88
2023-12-30T11:29:37.985Z,98392.81
2023-12-30T11:32:04.925Z,98384.91
2023-12-30T11:34:31.788Z,98382.25
2023-12-30T11:37:00.292Z,98397.19
2023-12-30T11:39:32.230Z,98391.03
2023-12-30T11:42:00.268Z,98376.13
2023-12-30T11:44:28.919Z,98394.56
2023-12-30T11:46:55.663Z,98398.94
2023-12-30T11:49:24.021Z,98391.91
2023-12-30T11:51:51.695Z,98379.63
2023-12-30T11:54:19.179Z,98377.91
2023-12-30T11:56:46.993Z,98377.03
2023-12-30T11:59:14.081Z,98391.03
2023-12-30T12:01:42.038Z,98383.16
2023-12-30T12:04:09.878Z,98383.13
2023-12-30T12:06:37.229Z,98378.75
2023-12-30T12:09:05.441Z,98382.25
2023-12-30T12:11:32.220Z,98374.38
2023-12-30T12:13:59.133Z,98387.53
2023-12-30T12:16:27.079Z,98388.41
2023-12-30T12:18:54.638Z,98382.28
2023-12-30T12:21:22.122Z,98377.91
2023-12-30T12:23:48.681Z,98396.34
2023-12-30T12:26:17.550Z,98392.81
2023-12-30T12:28:45.231Z,98389.31
2023-12-30T12:31:14.591Z,98395.47
2023-12-30T12:33:41.243Z,98393.72
2023-12-30T12:36:08.139Z,98398.97
2023-12-30T12:38:34.885Z,98400.72
2023-12-30T12:41:01.413Z,98377.91
2023-12-30T12:43:27.943Z,98402.44
2023-12-30T12:45:54.534Z,98412.13
2023-12-30T12:48:21.404Z,98405.13
2023-12-30T12:50:48.564Z,98405.97
2023-12-30T12:53:15.137Z,98402.44
2023-12-30T12:55:42.111Z,98404.22
2023-12-30T12:58:08.813Z,98405.97
2023-12-30T13:00:36.150Z,98401.56
2023-12-30T13:03:02.895Z,98401.56
2023-12-30T13:05:29.615Z,98406.84
2023-12-30T13:07:56.161Z,98391.06
2023-12-30T13:10:22.785Z,98398.09
2023-12-30T13:12:49.982Z,98398.94
2023-12-30T13:15:20.632Z,98396.31
2023-12-30T13:17:47.420Z,98394.56
2023-12-30T13:20:17.835Z,98388.41
2023-12-30T13:22:45.304Z,98391.03
2023-12-30T13:25:12.172Z,98388.41
2023-12-30T13:27:38.870Z,98380.50
2023-12-30T13:30:07.342Z,98378.75
2023-12-30T13:32:34.966Z,98389.28
2023-12-30T13:35:02.334Z,98380.50
2023-12-30T13:37:28.966Z,98386.66
2023-12-30T13:40:01.819Z,98391.91
2023-12-30T13:42:28.491Z,98386.63
2023-12-30T13:44:58.257Z,98385.75
2023-12-30T13:47:39.896Z,98387.50
2023-12-30T13:50:25.751Z,98390.13
2023-12-30T13:52:54.870Z,98391.00
2023-12-30T13:55:22.787Z,98395.41
2023-12-30T13:57:54.505Z,98394.53
2023-12-30T14:00:21.805Z,98391.88
2023-12-30T14:02:53.962Z,98393.66
2023-12-30T14:05:30.368Z,98392.78
2023-12-30T14:08:09.952Z,98398.00
2023-12-30T14:10:36.763Z,98398.00
2023-12-30T14:13:03.888Z,98410.28
2023-12-30T14:15:30.570Z,98412.06
2023-12-30T14:17:57.112Z,98409.41
2023-12-30T14:20:23.662Z,98419.97
2023-12-30T14:22:50.532Z,98407.66
2023-12-30T14:25:17.180Z,98426.09
2023-12-30T14:27:44.877Z,98427.84
2023-12-30T14:30:13.160Z,98432.22
2023-12-30T14:32:42.795Z,98434.88
2023-12-30T14:35:10.609Z,98429.59
2023-12-30T14:37:40.480Z,98439.25
2023-12-30T14:40:08.275Z,98437.50
2023-12-30T14:42:36.127Z,98420.81
2023-12-30T14:45:04.230Z,98432.22
2023-12-30T14:47:31.892Z,98426.09
2023-12-30T14:49:58.462Z,98426.94
2023-12-30T14:52:25.057Z,98419.03
2023-12-30T14:54:54.473Z,98419.91
2023-12-30T14:57:29.065Z,98417.28
2023-12-30T14:59:55.763Z,98416.38
2023-12-30T15:02:22.248Z,98415.50
2023-12-30T15:04:48.839Z,98413.75
2023-12-30T15:07:15.623Z,98420.81
2023-12-30T15:09:42.292Z,98422.53
2023-12-30T15:12:10.123Z,98426.91
2023-12-30T15:14:36.696Z,98419.03
2023-12-30T15:17:03.210Z,98429.56
2023-12-30T15:19:29.725Z,98437.44
2023-12-30T15:22:05.306Z,98434.81
2023-12-30T15:24:31.839Z,98433.94
2023-12-30T15:26:58.370Z,98441.84
2023-12-30T15:29:24.920Z,98439.19
2023-12-30T15:31:51.715Z,98439.19
2023-12-30T15:34:19.147Z,98447.09
2023-12-30T15:36:45.887Z,98443.59
2023-12-30T15:39:12.834Z,98442.69
2023-12-30T15:41:39.516Z,98454.06
2023-12-30T15:44:06.096Z,98455.81
2023-12-30T15:46:34.383Z,98458.50
2023-12-30T15:49:00.988Z,98456.69
2023-12-30T15:51:27.634Z,98453.19
2023-12-30T15:53:54.187Z,98463.75
2023-12-30T15:56:20.670Z,98470.78
2023-12-30T15:58:47.398Z,98462.84
2023-12-30T16:01:14.548Z,98469.03
2023-12-30T16:03:41.178Z,98469.91
2023-12-30T16:06:07.872Z,98473.41
2023-12-30T16:08:34.483Z,98463.75
2023-12-30T16:11:01.020Z,98465.53
2023-12-30T16:13:27.830Z,98456.75
2023-12-30T16:15:56.503Z,98452.34
2023-12-30T16:18:23.123Z,98441.84
2023-12-30T16:20:49.659Z,98445.34
2023-12-30T16:23:16.191Z,98447.97
2023-12-30T16:25:42.842Z,98446.22
2023-12-30T16:28:09.425Z,98438.31
2023-12-30T16:30:36.730Z,98440.09
2023-12-30T16:33:03.838Z,98439.22
2023-12-30T16:35:30.557Z,98437.44
2023-12-30T16:37:57.127Z,98438.34
2023-12-30T16:40:23.610Z,98433.94
2023-12-30T16:42:50.199Z,98438.38
2023-12-30T16:45:16.950Z,98442.75
2023-12-30T16:47:43.541Z,98425.22
2023-12-30T16:50:10.521Z,98429.59
2023-12-30T16:52:38.009Z,98433.97
2023-12-30T16:55:07.984Z,98435.75
2023-12-30T16:57:34.525Z,98416.44
2023-12-30T17:00:02.476Z,98419.06
2023-12-30T17:02:29.055Z,98412.91
2023-12-30T17:04:56.823Z,98421.66
2023-12-30T17:07:23.518Z,98420.81
2023-12-30T17:09:50.072Z,98411.16
2023-12-30T17:12:16.678Z,98419.06
2023-12-30T17:14:43.684Z,98427.84
2023-12-30T17:17:10.273Z,98424.34
2023-12-30T17:19:36.955Z,98426.09
2023-12-30T17:22:03.625Z,98416.44
2023-12-30T17:24:30.589Z,98419.94
2023-12-30T17:26:57.110Z,98421.75
2023-12-30T17:29:23.765Z,98427.00
2023-12-30T17:31:50.322Z,98426.13
2023-12-30T17:34:17.029Z,98429.63
2023-12-30T17:36:43.592Z,98421.75
2023-12-30T17:39:10.080Z,98429.63
2023-12-30T17:41:36.626Z,98436.66
2023-12-30T17:44:05.391Z,98434.03
2023-12-30T17:46:32.312Z,98436.66
2023-12-30T17:48:59.055Z,98435.78
2023-12-30T17:51:26.639Z,98426.13
2023-12-30T17:53:53.129Z,98430.53
2023-12-30T17:56:20.345Z,98430.53
2023-12-30T17:58:46.952Z,98438.41
2023-12-30T18:01:13.651Z,98423.47
2023-12-30T18:03:40.876Z,98432.28
2023-12-30T18:06:07.532Z,98424.34
2023-12-30T18:08:34.146Z,98419.94
2023-12-30T18:11:00.715Z,98430.47
2023-12-30T18:13:28.021Z,98427.84
2023-12-30T18:15:54.614Z,98421.69
2023-12-30T18:18:21.716Z,98414.69
2023-12-30T18:20:48.657Z,98414.72
2023-12-30T18:23:15.214Z,98416.44
2023-12-30T18:25:41.763Z,98418.19
2023-12-30T18:28:08.490Z,98421.69
2023-12-30T18:30:35.656Z,98426.09
2023-12-30T18:33:03.194Z,98422.63
2023-12-30T18:35:29.903Z,98430.53
2023-12-30T18:37:56.495Z,98427.84
2023-12-30T18:40:24.066Z,98441.88
2023-12-30T18:42:50.634Z,98443.69
2023-12-30T18:45:17.406Z,98437.53
2023-12-30T18:47:44.374Z,98433.09
2023-12-30T18:50:13.150Z,98435.75
2023-12-30T18:52:39.824Z,98431.34
2023-12-30T18:55:06.856Z,98437.50
2023-12-30T18:57:33.493Z,98437.50
2023-12-30T19:00:00.139Z,98437.50
2023-12-30T19:02:26.769Z,98429.59
2023-12-30T19:04:54.188Z,98431.34
2023-12-30T19:07:20.870Z,98430.47
2023-12-30T19:09:47.443Z,98426.09
2023-12-30T19:12:14.026Z,98433.09
2023-12-30T19:14:40.618Z,98420.81
2023-12-30T19:17:07.571Z,98412.91
2023-12-30T19:19:34.146Z,98421.69
2023-12-30T19:22:00.901Z,98413.81
2023-12-30T19:24:27.740Z,98419.06
2023-12-30T19:26:54.340Z,98416.44
2023-12-30T19:29:21.300Z,98417.28
2023-12-30T19:31:48.126Z,98423.41
2023-12-30T19:34:15.184Z,98412.00
2023-12-30T19:36:42.922Z,98414.63
2023-12-30T19:39:09.619Z,98409.31
2023-12-30T19:41:38.044Z,98418.09
2023-12-30T19:44:05.493Z,98410.19
2023-12-30T19:46:32.274Z,98406.69
2023-12-30T19:48:58.846Z,98414.59
2023-12-30T19:51:27.219Z,98411.06
2023-12-30T19:53:54.282Z,98410.19
2023-12-30T19:56:24.220Z,98405.81
2023-12-30T19:58:51.621Z,98410.16
2023-12-30T20:01:20.294Z,98401.38
2023-12-30T20:03:46.937Z,98404.06
2023-12-30T20:06:15.789Z,98397.03
2023-12-30T20:08:42.790Z,98394.41
2023-12-30T20:11:10.404Z,98385.63
2023-12-30T20:13:40.635Z,98394.41
2023-12-30T20:16:12.447Z,98375.97
2023-12-30T20:18:39.224Z,98383.00
2023-12-30T20:21:06.575Z,98383.88
2023-12-30T20:23:34.661Z,98377.75
2023-12-30T20:26:02.501Z,98378.63
2023-12-30T20:28:29.064Z,98374.22
2023-12-30T20:30:56.047Z,98367.22
2023-12-30T20:33:22.686Z,98371.59
2023-12-30T20:35:49.628Z,98361.06
2023-12-30T20:38:16.444Z,98360.19
2023-12-30T20:40:46.681Z,98369.84
2023-12-30T20:43:13.698Z,98370.72
2023-12-30T20:45:44.386Z,98372.47
2023-12-30T20:48:15.251Z,98359.28
2023-12-30T20:50:41.776Z,98357.56
2023-12-30T20:53:09.454Z,98357.53
2023-12-30T20:55:35.995Z,98354.06
2023-12-30T20:58:02.510Z,98356.69
2023-12-30T21:00:29.149Z,98353.19
2023-12-30T21:02:55.690Z,98348.78
2023-12-30T21:05:22.199Z,98350.53
2023-12-30T21:07:48.811Z,98344.41
2023-12-30T21:10:15.525Z,98340.03
2023-12-30T21:12:42.098Z,98333.88
2023-12-30T21:15:10.538Z,98329.50
2023-12-30T21:17:38.402Z,98332.13
2023-12-30T21:20:06.300Z,98344.41
2023-12-30T21:22:32.881Z,98333.88
2023-12-30T21:25:01.220Z,98345.28
2023-12-30T21:27:29.709Z,98339.09
2023-12-30T21:29:57.062Z,98331.22
2023-12-30T21:32:24.588Z,98339.13
2023-12-30T21:34:51.449Z,98328.63
2023-12-30T21:37:18.105Z,98339.97
2023-12-30T21:39:44.636Z,98327.69
2023-12-30T21:42:11.175Z,98325.94
2023-12-30T21:44:37.743Z,98321.56
2023-12-30T21:47:04.377Z,98312.75
2023-12-30T21:49:31.036Z,98308.41
2023-12-30T21:51:57.654Z,98311.91
2023-12-30T21:54:24.169Z,98303.13
2023-12-30T21:56:50.614Z,98297.88
2023-12-30T21:59:17.143Z,98311.91
2023-12-30T22:01:43.788Z,98305.78
2023-12-30T22:04:10.433Z,98304.91
2023-12-30T22:06:37.035Z,98301.38
2023-12-30T22:09:03.608Z,98304.91
2023-12-30T22:11:30.765Z,98298.75
2023-12-30T22:13:57.326Z,98297.00
2023-12-30T22:16:23.956Z,98300.50
2023-12-30T22:18:50.706Z,98289.97
2023-12-30T22:21:18.903Z,98286.47
2023-12-30T22:23:46.197Z,98283.84
2023-12-30T22:26:12.821Z,98284.72
2023-12-30T22:28:39.725Z,98287.34
2023-12-30T22:31:09.412Z,98275.91
2023-12-30T22:33:37.442Z,98273.28
2023-12-30T22:36:04.401Z,98270.66
2023-12-30T22:38:30.961Z,98268.91
2023-12-30T22:40:58.602Z,98272.41
2023-12-30T22:43:25.380Z,98271.56
2023-12-30T22:45:51.966Z,98270.69
2023-12-30T22:48:20.670Z,98273.28
2023-12-30T22:50:47.198Z,98259.25
2023-12-30T22:53:13.691Z,98257.50
2023-12-30T22:55:40.263Z,98268.91
2023-12-30T22:58:06.786Z,98262.75
2023-12-30T23:00:35.091Z,98272.41
2023-12-30T23:03:02.605Z,98279.44
2023-12-30T23:05:29.516Z,98273.28
2023-12-30T23:07:56.023Z,98278.56
2023-12-30T23:10:22.697Z,98276.78
2023-12-30T23:12:49.290Z,98272.41
2023-12-30T23:15:15.840Z,98282.06
2023-12-30T23:17:42.475Z,98275.91
2023-12-30T23:20:10.103Z,98283.81
2023-12-30T23:22:37.004Z,98269.78
2023-12-30T23:25:06.021Z,98272.41
2023-12-30T23:27:33.829Z,98272.41
2023-12-30T23:30:01.202Z,98267.16
2023-12-30T23:32:27.839Z,98268.94
2023-12-30T23:34:56.126Z,98266.31
2023-12-30T23:37:22.841Z,98254.03
2023-12-30T23:39:49.480Z,98251.38
2023-12-30T23:42:15.969Z,98240.84
2023-12-30T23:44:43.694Z,98236.47
2023-12-30T23:47:10.222Z,98231.19
2023-12-30T23:49:36.786Z,98226.81
2023-12-30T23:52:03.543Z,98223.31
2023-12-30T23:54:30.026Z,98228.56
2023-12-30T23:56:57.085Z,98220.69
2023-12-30T23:59:24.130Z,98211.88
